Pagrindinis puslapis
METAR-TAF:

METAR-TAF

Oro uostai :

Rionė, Danija

platuma: 55-04N, ilguma: 014-45E, Aukštis: 16 m

Dabartinis oras

Ataskaita buvo paskelbta 22 minutes, ne 03:50 UTC
Vėjas 18 kt iš Vakarų
Temperatūra 6°C
Drėgmė 93%
Slėgis 1006 hPa
Matomumas 10 km arba daugiau

METAR: EKRN 020350Z AUTO 26018KT 9999 OVC012/// 06/05 Q1006

Laikas: 06:12 (04:12 UTC)

Prognozė

Ataskaita buvo paskelbta 18 minutes, ne 03:54 UTC
Prognozė galioja nuo 02 metu 04 UTC su 02 metu 12 UTC
Vėjas 20 kt iš Vakarų
Matomumas 10 km arba daugiau
Su prošvaistėmis ne aukštis 2000 ft
Laikinai
nuo 02 metu 04 UTC su 02 metu 07 UTC
Vėjas 22 kt iš Vakarų/Pietvakarių su gūsio iki 35 kt
Su prošvaistėmis ne aukštis 1200 ft
Laikinai
nuo 02 metu 07 UTC su 02 metu 12 UTC
Vėjas 22 kt iš Vakarų/Pietvakarių su gūsio iki 35 kt

TAF: EKRN 020354Z 0204/0212 26020KT 9999 BKN020 TEMPO 0204/0207 25022G35KT BKN012 TEMPO 0207/0212 24022G35KT

Orai ataskaitas ir orų prognozės (METAR, TAF).

turimą stotys yra geltonos ir raudonos taškus žemėlapyje.

Perkelti pele per norėdami pamatyti stoties vardą.

Tada spustelėkite, norėdami matyti oro stebėjimo ir prognozės.

Norėdami pakeisti žemėlapį: spustelėkite ant žalios mygtukų su juodo kryžiaus žemyn,; žalią mygtuką su brūkšneliu, jei norite nutolinti; arba žalių rodyklių gretimoms žemėlapius.


METAR-TAF: